Time;durP1;ratioP1;P1;durP2;ratioP2;P2;SDS_P1;SDS_P2;PMS_P1;PMS_P2;Temp;Humidity;BMP_temperature;BMP_pressure;BME280_temperature;BME280_humidity;BME280_pressure;Samples;Min_cycle;Max_cycle;Signal;HPM_P1;HPM_P2
2022/09/21 00:01:29;;;;;;;5.55;1.25;;;10.70;99.90;;;;;;6184280;23;20005;-72
2022/09/21 00:04:00;;;;;;;5.60;1.27;;;10.60;99.90;;;;;;6183658;23;20008;-72
2022/09/21 00:06:31;;;;;;;5.15;1.20;;;10.60;99.90;;;;;;6183417;23;20001;-72
2022/09/21 00:08:57;;;;;;;5.85;2.05;;;10.60;99.90;;;;;;6182672;23;20387;-72
2022/09/21 00:11:25;;;;;;;4.43;1.17;;;10.70;99.90;;;;;;6183822;23;20060;-71
2022/09/21 00:13:54;;;;;;;4.13;1.50;;;10.60;99.90;;;;;;6183140;23;20008;-72
2022/09/21 00:16:19;;;;;;;3.92;1.50;;;10.60;99.90;;;;;;6183255;23;20025;-72
2022/09/21 00:18:45;;;;;;;4.85;1.35;;;10.80;99.90;;;;;;6183137;23;20008;-71
2022/09/21 00:21:14;;;;;;;5.25;1.35;;;10.70;99.90;;;;;;6182927;23;20426;-71
2022/09/21 00:23:40;;;;;;;3.50;1.35;;;10.90;99.90;;;;;;6183102;23;20051;-72
2022/09/21 00:26:09;;;;;;;1.52;0.80;;;10.80;99.90;;;;;;6182948;23;20005;-72
2022/09/21 00:28:35;;;;;;;3.58;1.50;;;11.10;99.90;;;;;;6181556;23;20107;-72
2022/09/21 00:31:06;;;;;;;8.82;2.25;;;10.80;99.90;;;;;;6182747;23;20012;-72
2022/09/21 00:33:33;;;;;;;4.72;1.20;;;10.80;99.90;;;;;;6183929;23;20028;-72
2022/09/21 00:36:10;;;;;;;2.80;1.48;;;10.80;99.90;;;;;;6182230;23;20012;-72
2022/09/21 00:38:36;;;;;;;7.57;1.65;;;10.70;99.90;;;;;;6183603;23;20080;-72
2022/09/21 00:41:03;;;;;;;4.03;1.33;;;10.50;99.90;;;;;;6183020;23;20005;-71
2022/09/21 00:43:29;;;;;;;5.38;1.63;;;10.70;99.90;;;;;;6183728;23;20005;-72
2022/09/21 00:46:01;;;;;;;4.22;1.63;;;11.00;99.90;;;;;;6182928;23;20011;-72
2022/09/21 00:48:28;;;;;;;2.70;2.00;;;10.60;99.90;;;;;;6182839;23;20056;-71
2022/09/21 00:51:00;;;;;;;7.72;2.20;;;10.60;99.90;;;;;;6182863;23;20001;-72
2022/09/21 00:53:27;;;;;;;7.95;2.65;;;11.10;99.90;;;;;;6183364;23;20004;-71
2022/09/21 00:55:56;;;;;;;4.45;3.05;;;10.50;99.90;;;;;;6183312;23;20005;-72
2022/09/21 00:58:29;;;;;;;4.70;3.42;;;10.50;99.90;;;;;;6183632;23;20430;-71
2022/09/21 01:00:56;;;;;;;9.07;2.67;;;10.50;99.90;;;;;;6182652;23;20012;-71
2022/09/21 01:03:22;;;;;;;7.10;3.30;;;10.80;99.90;;;;;;6182758;23;20028;-71
2022/09/21 01:05:48;;;;;;;6.32;3.28;;;10.40;99.90;;;;;;6183080;23;20008;-72
2022/09/21 01:08:15;;;;;;;5.68;2.80;;;10.40;99.90;;;;;;6183037;23;20024;-72
2022/09/21 01:11:03;;;;;;;5.88;2.72;;;10.40;99.90;;;;;;6183182;23;20031;-71
2022/09/21 01:13:47;;;;;;;6.80;2.40;;;11.00;99.90;;;;;;6183184;23;20001;-71
2022/09/21 01:16:38;;;;;;;5.95;2.70;;;10.30;99.90;;;;;;6183143;23;20040;-71
2022/09/21 01:19:25;;;;;;;3.35;2.50;;;10.20;99.90;;;;;;6182587;23;20427;-71
2022/09/21 01:22:21;;;;;;;4.60;2.90;;;10.10;99.90;;;;;;6182346;23;20072;-72
2022/09/21 01:25:13;;;;;;;4.97;2.67;;;10.00;99.90;;;;;;6182758;23;20052;-73
2022/09/21 01:27:54;;;;;;;4.23;2.03;;;10.00;99.90;;;;;;6182516;23;20032;-72
2022/09/21 01:30:21;;;;;;;4.47;2.25;;;10.00;99.90;;;;;;6181405;23;20009;-72
2022/09/21 01:33:16;;;;;;;10.75;2.70;;;9.90;99.90;;;;;;6181932;23;20581;-72
2022/09/21 01:35:48;;;;;;;7.38;2.33;;;9.90;99.90;;;;;;6182734;23;20005;-72
2022/09/21 01:38:29;;;;;;;2.70;2.33;;;9.90;99.90;;;;;;6182818;23;20007;-72
2022/09/21 01:41:00;;;;;;;5.40;2.42;;;9.90;99.90;;;;;;6182668;23;20001;-72
2022/09/21 01:43:33;;;;;;;3.72;1.80;;;9.90;99.90;;;;;;6183238;23;20005;-72
2022/09/21 01:46:00;;;;;;;3.47;2.17;;;10.10;99.90;;;;;;6182884;23;20334;-72
2022/09/21 01:48:34;;;;;;;6.60;2.20;;;9.80;99.90;;;;;;6182461;23;20001;-72
2022/09/21 01:51:05;;;;;;;5.28;2.50;;;9.80;99.90;;;;;;6182617;23;20377;-71
2022/09/21 01:53:38;;;;;;;3.53;1.95;;;9.80;99.90;;;;;;6183092;23;20001;-72
2022/09/21 01:56:11;;;;;;;3.08;1.73;;;9.70;99.90;;;;;;6181231;23;20009;-72
2022/09/21 01:58:49;;;;;;;6.88;1.80;;;9.70;99.90;;;;;;6183038;23;20005;-71
2022/09/21 02:01:19;;;;;;;7.10;2.30;;;9.80;99.90;;;;;;6182234;23;20006;-71
2022/09/21 02:03:48;;;;;;;4.50;2.53;;;9.70;99.90;;;;;;6182590;23;20008;-71
2022/09/21 02:06:15;;;;;;;5.20;1.83;;;9.80;99.90;;;;;;6181078;23;20005;-72
2022/09/21 02:08:41;;;;;;;3.60;2.00;;;9.60;99.90;;;;;;6182979;23;20312;-72
2022/09/21 02:11:07;;;;;;;4.83;1.40;;;9.60;99.90;;;;;;6180999;23;20088;-72
2022/09/21 02:13:37;;;;;;;4.37;2.10;;;9.40;99.90;;;;;;6182796;23;20076;-72
2022/09/21 02:16:11;;;;;;;4.53;1.90;;;9.40;99.90;;;;;;6181757;23;20009;-71
2022/09/21 02:18:55;;;;;;;;;;;9.30;99.90;;;;;;6183262;23;20001;-72
2022/09/21 02:21:46;;;;;;;3.60;1.85;;;9.30;99.90;;;;;;6182700;23;20322;-72
2022/09/21 02:24:32;;;;;;;4.33;1.60;;;9.30;99.90;;;;;;6182690;23;20008;-71
2022/09/21 02:27:18;;;;;;;4.37;2.10;;;9.20;99.90;;;;;;6180565;23;20009;-71
2022/09/21 02:29:52;;;;;;;3.83;1.70;;;9.10;99.90;;;;;;6182565;23;20056;-72
2022/09/21 02:32:42;;;;;;;5.93;1.70;;;9.10;99.90;;;;;;6182724;23;20009;-72
2022/09/21 02:35:17;;;;;;;4.17;1.90;;;9.00;99.90;;;;;;6180612;23;20431;-72
2022/09/21 02:38:06;;;;;;;5.27;1.77;;;9.00;99.90;;;;;;6181072;23;20004;-71
2022/09/21 02:41:08;;;;;;;2.83;1.70;;;9.00;99.90;;;;;;6182585;23;20004;-71
2022/09/21 02:43:40;;;;;;;6.60;2.20;;;8.90;99.90;;;;;;6136836;23;20013;-71
2022/09/21 02:46:14;;;;;;;2.30;1.40;;;8.80;99.90;;;;;;6181815;23;20005;-72
2022/09/21 02:48:51;;;;;;;3.80;1.27;;;8.90;99.90;;;;;;6182389;23;20001;-72
2022/09/21 02:51:22;;;;;;;3.27;1.30;;;9.00;99.90;;;;;;6182520;23;20001;-71
2022/09/21 02:53:50;;;;;;;4.97;1.53;;;8.90;99.90;;;;;;6183514;23;20009;-72
2022/09/21 02:56:16;;;;;;;5.27;1.27;;;9.00;99.90;;;;;;6184243;23;20025;-71
2022/09/21 02:58:53;;;;;;;2.90;1.10;;;8.90;99.90;;;;;;6183898;23;20308;-72
2022/09/21 03:01:19;;;;;;;2.47;1.40;;;8.80;99.90;;;;;;6183013;23;20366;-72
2022/09/21 03:03:46;;;;;;;2.67;1.50;;;8.80;99.90;;;;;;6182183;23;20001;-72
2022/09/21 03:06:11;;;;;;;1.83;1.53;;;8.60;99.90;;;;;;6182090;23;20075;-74
2022/09/21 03:08:37;;;;;;;4.00;1.17;;;8.80;99.90;;;;;;6182110;23;20091;-74
2022/09/21 03:11:02;;;;;;;1.70;1.27;;;8.70;99.90;;;;;;6181971;23;20004;-74
2022/09/21 03:13:28;;;;;;;4.37;1.30;;;8.70;99.90;;;;;;6180142;23;20059;-74
2022/09/21 03:16:00;;;;;;;2.95;1.27;;;8.60;99.90;;;;;;6181405;23;20419;-72
2022/09/21 03:18:25;;;;;;;3.10;1.20;;;8.50;99.90;;;;;;6182351;23;20005;-71
2022/09/21 03:20:51;;;;;;;2.40;1.30;;;8.60;99.90;;;;;;6181946;23;20005;-72
2022/09/21 03:23:16;;;;;;;4.40;1.70;;;8.50;99.90;;;;;;6182001;23;20037;-72
2022/09/21 03:25:46;;;;;;;5.50;1.27;;;8.50;99.90;;;;;;6182016;23;20001;-71
2022/09/21 03:28:13;;;;;;;2.83;1.30;;;8.50;99.90;;;;;;6181477;23;20031;-71
2022/09/21 03:30:38;;;;;;;4.43;1.97;;;8.40;99.90;;;;;;6182201;23;20005;-72
2022/09/21 03:33:05;;;;;;;4.17;1.73;;;8.50;99.90;;;;;;6181551;23;20012;-71
2022/09/21 03:35:34;;;;;;;2.87;1.40;;;8.40;99.90;;;;;;6182335;23;20071;-72
2022/09/21 03:38:00;;;;;;;5.07;1.33;;;8.40;99.90;;;;;;6181423;23;19998;-71
2022/09/21 03:40:27;;;;;;;6.23;1.33;;;8.30;99.90;;;;;;6182029;23;20001;-71
2022/09/21 03:42:54;;;;;;;6.37;1.57;;;8.30;99.90;;;;;;6180976;23;20427;-72
2022/09/21 03:45:26;;;;;;;3.37;0.90;;;8.30;99.90;;;;;;6182215;23;20008;-71
2022/09/21 03:47:56;;;;;;;5.47;1.47;;;8.20;99.90;;;;;;6181783;23;20430;-72
2022/09/21 03:50:23;;;;;;;2.60;1.03;;;8.20;99.90;;;;;;6181700;23;19997;-72
2022/09/21 03:52:49;;;;;;;2.67;1.10;;;8.00;99.90;;;;;;6181766;23;20212;-71
2022/09/21 03:55:14;;;;;;;2.00;1.47;;;8.10;99.90;;;;;;6181532;23;20494;-71
2022/09/21 03:57:43;;;;;;;5.23;1.03;;;8.10;99.90;;;;;;6181291;23;20011;-72
2022/09/21 04:00:10;;;;;;;3.23;1.30;;;8.00;99.90;;;;;;6181576;23;20011;-72
2022/09/21 04:02:38;;;;;;;5.63;1.10;;;8.10;99.90;;;;;;6181907;23;20005;-71
2022/09/21 04:05:05;;;;;;;4.63;1.23;;;8.10;99.90;;;;;;6181747;23;20024;-71
2022/09/21 04:07:35;;;;;;;3.83;1.20;;;8.10;99.90;;;;;;6182000;23;20008;-71
2022/09/21 04:10:05;;;;;;;4.57;1.67;;;8.20;99.90;;;;;;6181513;23;20004;-72
2022/09/21 04:12:33;;;;;;;4.60;1.70;;;8.20;99.90;;;;;;6181069;23;20008;-72
2022/09/21 04:15:00;;;;;;;1.90;1.03;;;8.20;99.90;;;;;;6181362;23;20025;-71
2022/09/21 04:17:26;;;;;;;3.57;1.20;;;8.20;99.90;;;;;;6181426;23;20427;-71
2022/09/21 04:19:51;;;;;;;2.40;1.27;;;8.10;99.90;;;;;;6181608;23;20008;-71
2022/09/21 04:22:17;;;;;;;3.97;1.10;;;8.10;99.90;;;;;;6181820;23;20001;-71
2022/09/21 04:24:43;;;;;;;5.80;1.00;;;8.00;99.90;;;;;;6181632;23;20686;-71
2022/09/21 04:27:10;;;;;;;3.73;1.13;;;8.00;99.90;;;;;;6180740;23;19998;-71
2022/09/21 04:29:36;;;;;;;4.33;1.10;;;7.90;99.90;;;;;;6183904;23;20002;-71
2022/09/21 04:32:03;;;;;;;2.57;1.33;;;9.50;99.90;;;;;;6183242;23;20005;-71
2022/09/21 04:34:30;;;;;;;3.37;1.10;;;7.90;99.90;;;;;;6182147;23;20005;-71
2022/09/21 04:36:57;;;;;;;3.10;0.90;;;7.80;99.90;;;;;;6183194;23;20004;-71
2022/09/21 04:39:23;;;;;;;4.07;1.40;;;7.80;99.90;;;;;;6182245;23;20378;-71
2022/09/21 04:41:49;;;;;;;2.33;1.07;;;7.90;99.90;;;;;;6182733;23;20009;-71
2022/09/21 04:44:14;;;;;;;2.70;1.10;;;7.80;99.90;;;;;;6181924;23;20498;-71
2022/09/21 04:46:41;;;;;;;2.17;1.23;;;7.80;99.90;;;;;;6183392;23;20076;-71
2022/09/21 04:49:07;;;;;;;4.60;2.13;;;7.70;99.90;;;;;;6183157;23;20024;-71
2022/09/21 04:51:33;;;;;;;4.93;1.43;;;7.60;99.90;;;;;;6182526;23;20008;-72
2022/09/21 04:53:59;;;;;;;2.77;1.30;;;7.80;99.90;;;;;;6182572;23;20323;-72
2022/09/21 04:56:24;;;;;;;4.37;1.53;;;7.70;99.90;;;;;;6182411;23;20004;-71
2022/09/21 04:58:50;;;;;;;4.47;1.57;;;7.70;99.90;;;;;;6182973;23;20024;-71
2022/09/21 05:01:22;;;;;;;4.17;1.27;;;7.50;99.90;;;;;;6182583;23;20002;-71
2022/09/21 05:03:47;;;;;;;3.80;1.53;;;7.50;99.90;;;;;;6182992;23;20044;-71
2022/09/21 05:06:13;;;;;;;5.33;1.73;;;7.50;99.90;;;;;;6183116;23;20080;-72
2022/09/21 05:11:24;;;;;;;3.93;1.40;;;7.50;99.90;;;;;;6182404;23;20088;-71
2022/09/21 05:13:50;;;;;;;2.30;1.07;;;7.50;99.90;;;;;;6183136;23;20346;-71
2022/09/21 05:16:17;;;;;;;2.83;1.80;;;7.20;99.90;;;;;;6182594;23;20068;-72
2022/09/21 05:18:43;;;;;;;4.60;1.80;;;7.40;99.90;;;;;;6182555;23;20072;-71
2022/09/21 05:21:12;;;;;;;4.07;1.53;;;7.50;99.90;;;;;;6182334;23;20005;-71
2022/09/21 05:23:37;;;;;;;5.80;1.40;;;7.30;99.90;;;;;;6182328;23;20001;-72
2022/09/21 05:26:03;;;;;;;4.40;1.63;;;7.20;99.90;;;;;;6182022;23;20328;-71
2022/09/21 05:28:29;;;;;;;9.47;1.70;;;7.20;99.90;;;;;;6182733;23;20013;-72
2022/09/21 05:31:18;;;;;;;6.07;1.37;;;7.20;99.90;;;;;;6182034;23;20013;-71
2022/09/21 05:33:57;;;;;;;2.53;1.40;;;7.30;99.90;;;;;;6182665;23;20075;-72
2022/09/21 05:36:28;;;;;;;6.83;1.60;;;7.40;99.90;;;;;;6182858;23;20438;-71
2022/09/21 05:38:55;;;;;;;4.27;1.37;;;7.30;99.90;;;;;;6181246;23;20001;-71
2022/09/21 05:41:21;;;;;;;4.07;1.80;;;7.30;99.90;;;;;;6182490;23;20052;-72
2022/09/21 05:43:47;;;;;;;5.17;1.77;;;7.40;99.90;;;;;;6182390;23;20001;-72
2022/09/21 05:46:32;;;;;;;2.90;1.83;;;7.30;99.90;;;;;;6182358;23;20016;-71
2022/09/21 05:49:13;;;;;;;3.50;1.60;;;7.40;99.90;;;;;;6182320;23;20015;-72
2022/09/21 05:51:47;;;;;;;3.47;1.33;;;7.50;99.90;;;;;;6182788;23;20084;-72
2022/09/21 05:54:46;;;;;;;5.03;1.43;;;7.40;99.90;;;;;;6182201;23;20059;-72
2022/09/21 05:57:21;;;;;;;3.60;1.53;;;7.30;99.90;;;;;;6182828;23;19997;-72
2022/09/21 06:00:17;;;;;;;5.77;1.33;;;7.50;99.90;;;;;;6182694;23;20081;-72
2022/09/21 06:03:04;;;;;;;6.60;1.70;;;7.60;99.90;;;;;;6183061;23;20004;-76
2022/09/21 06:05:30;;;;;;;3.93;1.10;;;7.60;99.90;;;;;;6182921;23;20092;-77
2022/09/21 06:07:55;;;;;;;4.33;1.57;;;7.80;99.90;;;;;;6181860;23;20415;-77
2022/09/21 06:10:23;;;;;;;7.20;2.37;;;7.50;99.90;;;;;;6182914;23;20402;-77
2022/09/21 06:12:49;;;;;;;2.33;1.27;;;7.60;99.90;;;;;;6182680;23;20001;-77
2022/09/21 06:15:15;;;;;;;2.57;1.50;;;7.60;99.90;;;;;;6182646;23;19997;-77
2022/09/21 06:17:41;;;;;;;4.40;1.80;;;7.60;99.90;;;;;;6182632;23;20051;-77
2022/09/21 06:20:07;;;;;;;11.30;2.07;;;7.60;99.90;;;;;;6182748;23;20366;-77
2022/09/21 06:22:33;;;;;;;5.50;1.67;;;7.60;99.90;;;;;;6182194;23;20032;-77
2022/09/21 06:24:59;;;;;;;5.97;1.43;;;7.70;99.90;;;;;;6181955;23;19997;-77
2022/09/21 06:27:26;;;;;;;5.13;1.50;;;7.60;99.90;;;;;;6182500;23;20335;-77
2022/09/21 06:29:51;;;;;;;4.73;1.70;;;7.70;99.90;;;;;;6182460;23;20005;-77
2022/09/21 06:32:17;;;;;;;4.20;1.53;;;7.70;99.90;;;;;;6180542;23;20012;-77
2022/09/21 06:34:43;;;;;;;8.10;2.40;;;7.80;99.90;;;;;;6182230;23;20072;-77
2022/09/21 06:37:08;;;;;;;11.50;2.67;;;7.80;99.90;;;;;;6181597;23;20008;-77
2022/09/21 06:39:34;;;;;;;9.60;2.83;;;7.90;99.90;;;;;;6182543;23;20005;-77
2022/09/21 06:41:59;;;;;;;9.00;3.17;;;7.90;99.90;;;;;;6181189;23;20331;-77
2022/09/21 06:44:25;;;;;;;7.37;2.90;;;8.10;99.90;;;;;;6182302;23;20001;-77
2022/09/21 06:46:51;;;;;;;7.77;3.60;;;8.00;99.90;;;;;;6181902;23;20001;-77
2022/09/21 06:49:16;;;;;;;10.77;4.50;;;8.20;99.90;;;;;;6182014;23;20005;-77
2022/09/21 06:51:42;;;;;;;9.47;5.17;;;8.30;99.90;;;;;;6179629;23;20060;-77
2022/09/21 06:54:08;;;;;;;9.40;5.70;;;8.40;99.90;;;;;;6180126;23;20028;-77
2022/09/21 06:56:34;;;;;;;12.53;7.93;;;8.50;99.90;;;;;;6180645;23;20423;-77
2022/09/21 06:59:00;;;;;;;12.00;7.07;;;8.60;99.90;;;;;;6181145;23;20072;-77
2022/09/21 07:01:26;;;;;;;19.87;8.20;;;8.80;99.90;;;;;;6181871;23;20028;-78
2022/09/21 07:03:52;;;;;;;12.70;6.97;;;8.90;99.90;;;;;;6181374;23;20065;-77
2022/09/21 07:06:19;;;;;;;11.60;6.63;;;8.90;99.90;;;;;;6178472;23;20009;-78
2022/09/21 07:08:45;;;;;;;16.00;7.57;;;9.10;99.90;;;;;;6178360;23;20009;-78
2022/09/21 07:11:12;;;;;;;12.93;8.30;;;9.10;99.90;;;;;;6179511;23;19997;-78
2022/09/21 07:13:38;;;;;;;16.17;9.37;;;9.10;99.90;;;;;;6181768;23;20418;-78
2022/09/21 07:16:06;;;;;;;14.10;8.23;;;9.10;99.90;;;;;;6178637;23;20016;-78
2022/09/21 07:18:35;;;;;;;16.80;7.80;;;9.30;99.90;;;;;;6181899;23;20414;-78
2022/09/21 07:21:05;;;;;;;12.40;7.47;;;9.40;99.90;;;;;;6176943;23;20008;-77
2022/09/21 07:23:30;;;;;;;13.77;7.50;;;9.50;99.90;;;;;;6181312;23;20043;-78
2022/09/21 07:26:04;;;;;;;14.23;7.90;;;9.50;99.90;;;;;;6177616;23;20001;-78
2022/09/21 07:28:30;;;;;;;9.55;6.03;;;8.80;99.90;;;;;;6180263;23;20469;-76
2022/09/21 07:30:57;;;;;;;12.43;5.87;;;9.70;99.90;;;;;;6180554;23;20005;-78
2022/09/21 07:33:24;;;;;;;13.00;6.70;;;9.90;99.90;;;;;;6181326;23;20327;-78
2022/09/21 07:35:51;;;;;;;8.97;5.67;;;10.10;99.90;;;;;;6179769;23;20009;-78
2022/09/21 07:38:16;;;;;;;11.27;5.90;;;10.20;99.90;;;;;;6182735;23;20024;-78
2022/09/21 07:40:42;;;;;;;9.98;5.57;;;10.20;99.90;;;;;;6179386;23;20327;-78
2022/09/21 07:43:07;;;;;;;18.30;9.40;;;10.30;99.90;;;;;;6179491;23;20312;-78
2022/09/21 07:45:33;;;;;;;14.60;11.03;;;10.40;99.90;;;;;;6180838;23;20430;-78
2022/09/21 07:48:05;;;;;;;23.73;15.27;;;10.40;99.90;;;;;;6180756;23;20449;-78
2022/09/21 07:50:34;;;;;;;27.40;18.00;;;10.70;99.90;;;;;;6179271;23;20005;-78
2022/09/21 07:53:01;;;;;;;20.47;17.97;;;10.80;99.90;;;;;;6180022;23;20060;-78
2022/09/21 07:55:28;;;;;;;21.30;18.43;;;10.80;99.90;;;;;;6179195;23;20005;-78
2022/09/21 08:00:38;;;;;;;17.00;13.95;;;10.80;99.90;;;;;;6181171;23;20020;-78
2022/09/21 08:03:04;;;;;;;25.20;17.17;;;10.90;99.90;;;;;;6181235;23;20040;-78
2022/09/21 08:05:31;;;;;;;25.70;16.70;;;11.00;99.90;;;;;;6179918;23;20005;-78
2022/09/21 08:07:57;;;;;;;22.10;16.00;;;11.10;99.90;;;;;;6181067;23;20087;-78
2022/09/21 08:10:27;;;;;;;20.25;16.38;;;11.20;99.90;;;;;;6183091;23;19997;-78
2022/09/21 08:12:52;;;;;;;18.25;13.63;;;11.20;99.90;;;;;;6183429;23;20025;-78
2022/09/21 08:15:18;;;;;;;19.40;13.15;;;11.10;99.90;;;;;;6182708;23;20017;-78
2022/09/21 08:17:44;;;;;;;12.18;10.95;;;11.20;99.90;;;;;;6180102;23;20001;-78
2022/09/21 08:20:09;;;;;;;13.57;9.02;;;11.40;99.90;;;;;;6182828;23;20000;-78
2022/09/21 08:22:35;;;;;;;13.23;8.57;;;;;;;;;;6183186;23;20055;-78
2022/09/21 08:25:03;;;;;;;9.75;6.97;;;;;;;;;;6183008;23;20004;-77
2022/09/21 08:27:29;;;;;;;12.75;7.10;;;11.50;99.90;;;;;;6177948;23;20009;-77
2022/09/21 08:29:54;;;;;;;12.30;7.13;;;11.50;99.90;;;;;;6180119;23;20004;-77
2022/09/21 08:32:20;;;;;;;13.18;8.68;;;12.20;99.90;;;;;;6179660;23;20001;-77
2022/09/21 08:34:45;;;;;;;10.45;7.63;;;11.60;99.90;;;;;;6181139;23;20079;-77
2022/09/21 08:37:11;;;;;;;10.57;8.32;;;11.60;99.90;;;;;;6180632;23;20001;-77
2022/09/21 08:39:37;;;;;;;14.10;7.38;;;11.80;99.90;;;;;;6182495;23;20001;-77
2022/09/21 08:42:30;;;;;;;11.00;8.10;;;11.80;99.90;;;;;;6180476;23;20009;-77
2022/09/21 08:45:00;;;;;;;13.25;10.88;;;11.90;99.90;;;;;;6182092;23;20446;-77
2022/09/21 08:47:38;;;;;;;18.23;12.93;;;12.00;99.90;;;;;;6180201;23;20003;-77
2022/09/21 08:50:14;;;;;;;16.83;14.10;;;12.10;99.90;;;;;;6180913;23;20514;-77
2022/09/21 08:52:39;;;;;;;24.60;14.55;;;12.10;99.90;;;;;;6182313;23;20008;-77
2022/09/21 08:55:15;;;;;;;21.15;16.10;;;12.40;99.90;;;;;;6181792;23;20013;-78
2022/09/21 08:57:40;;;;;;;15.68;11.20;;;12.30;99.90;;;;;;6180803;23;20040;-77
2022/09/21 09:00:16;;;;;;;16.08;10.63;;;12.30;99.90;;;;;;6178692;23;20001;-77
2022/09/21 09:03:07;;;;;;;15.18;9.23;;;12.20;99.90;;;;;;6181660;23;20009;-77
2022/09/21 09:06:12;;;;;;;10.82;6.97;;;12.40;99.90;;;;;;6181959;23;20021;-77
2022/09/21 09:09:02;;;;;;;7.57;6.00;;;12.40;99.90;;;;;;6182700;23;20080;-77
2022/09/21 09:11:57;;;;;;;7.72;5.00;;;12.50;99.90;;;;;;6182076;23;20324;-77
2022/09/21 09:14:25;;;;;;;;;;;12.60;99.90;;;;;;6183323;23;20012;-77
2022/09/21 09:17:27;;;;;;;4.65;3.40;;;12.60;99.90;;;;;;6179867;23;19998;-77
2022/09/21 09:20:04;;;;;;;7.88;3.70;;;12.60;99.90;;;;;;6182017;23;20008;-77
2022/09/21 09:22:37;;;;;;;11.07;3.33;;;12.80;99.90;;;;;;6181358;23;20009;-77
2022/09/21 09:25:14;;;;;;;9.15;2.38;;;13.70;99.90;;;;;;6182689;23;20326;-77
2022/09/21 09:27:43;;;;;;;7.45;3.88;;;13.00;99.90;;;;;;6179987;23;20075;-76
2022/09/21 09:30:15;;;;;;;8.00;3.17;;;13.10;99.90;;;;;;6182069;23;20005;-76
2022/09/21 09:32:57;;;;;;;7.18;3.42;;;13.20;99.90;;;;;;6180397;23;19997;-77
2022/09/21 09:35:35;;;;;;;6.85;3.08;;;13.30;99.90;;;;;;6181080;23;20323;-76
2022/09/21 09:38:27;;;;;;;4.80;3.42;;;13.30;99.90;;;;;;6179495;23;19997;-77
2022/09/21 09:41:13;;;;;;;8.68;2.80;;;13.30;99.90;;;;;;6182575;23;20029;-77
2022/09/21 09:44:09;;;;;;;6.35;1.67;;;13.40;99.90;;;;;;6181090;23;20099;-76
2022/09/21 09:46:59;;;;;;;7.90;1.98;;;13.50;99.90;;;;;;6182622;23;20140;-76
2022/09/21 09:49:36;;;;;;;6.22;2.03;;;13.70;99.90;;;;;;6182562;23;20027;-77
2022/09/21 09:52:04;;;;;;;7.10;2.17;;;13.90;99.90;;;;;;6179827;23;20075;-78
2022/09/21 09:54:33;;;;;;;5.45;1.77;;;14.00;99.90;;;;;;6179433;23;20021;-77
2022/09/21 09:57:02;;;;;;;2.53;1.50;;;14.60;99.90;;;;;;6180770;23;20394;-77
2022/09/21 09:59:50;;;;;;;4.15;1.25;;;14.10;99.90;;;;;;6181750;23;20009;-77
2022/09/21 10:02:26;;;;;;;9.10;1.85;;;14.20;99.90;;;;;;6182452;23;20071;-77
2022/09/21 10:05:00;;;;;;;5.65;1.50;;;14.30;99.90;;;;;;6181002;23;20375;-78
2022/09/21 10:07:36;;;;;;;7.90;1.35;;;14.40;99.90;;;;;;6180822;23;20074;-76
2022/09/21 10:10:20;;;;;;;4.75;1.00;;;14.70;99.90;;;;;;6181015;23;20008;-75
2022/09/21 10:12:46;;;;;;;2.85;0.75;;;14.50;99.90;;;;;;6182374;23;20036;-75
2022/09/21 10:15:12;;;;;;;4.32;1.55;;;14.70;99.90;;;;;;6181842;23;20001;-76
2022/09/21 10:17:38;;;;;;;7.18;1.35;;;15.30;99.90;;;;;;6179579;23;20075;-75
2022/09/21 10:20:06;;;;;;;8.20;0.88;;;14.80;99.90;;;;;;6182046;23;20012;-75
2022/09/21 10:22:33;;;;;;;3.42;0.70;;;14.80;99.90;;;;;;6181558;23;20308;-76
2022/09/21 10:25:00;;;;;;;5.82;1.00;;;15.00;99.90;;;;;;6181176;23;20013;-74
2022/09/21 10:27:34;;;;;;;2.78;1.05;;;14.90;99.90;;;;;;6179376;23;20043;-74
2022/09/21 10:30:00;;;;;;;4.68;1.17;;;15.00;99.90;;;;;;6180668;23;20072;-74
2022/09/21 10:32:29;;;;;;;2.55;0.60;;;14.90;99.90;;;;;;6181826;23;20031;-74
2022/09/21 10:35:06;;;;;;;3.03;0.80;;;15.20;99.90;;;;;;6181306;23;19997;-74
2022/09/21 10:37:34;;;;;;;2.70;0.90;;;15.30;99.90;;;;;;6181010;23;20008;-76
2022/09/21 10:40:00;;;;;;;3.83;0.70;;;15.40;99.90;;;;;;6179868;23;20001;-76
2022/09/21 10:42:36;;;;;;;3.83;0.70;;;15.40;99.90;;;;;;6182073;23;20001;-77
2022/09/21 10:45:17;;;;;;;5.25;0.70;;;15.40;99.90;;;;;;6180916;23;20009;-76
2022/09/21 10:48:05;;;;;;;4.47;0.57;;;15.50;99.90;;;;;;6180107;23;20326;-77
2022/09/21 10:50:36;;;;;;;3.25;0.80;;;15.50;99.90;;;;;;6180142;23;20071;-76
2022/09/21 10:53:08;;;;;;;2.72;0.70;;;15.60;99.90;;;;;;6180967;23;20009;-76
2022/09/21 10:55:38;;;;;;;4.47;0.90;;;16.40;99.90;;;;;;6180338;23;20008;-76
2022/09/21 10:58:09;;;;;;;2.95;0.65;;;15.80;99.90;;;;;;6181228;23;20005;-76
2022/09/21 11:00:41;;;;;;;5.60;0.80;;;15.80;99.90;;;;;;6181456;23;20009;-77
2022/09/21 11:03:30;;;;;;;4.18;0.93;;;15.80;99.90;;;;;;6181859;23;20011;-77
2022/09/21 11:06:01;;;;;;;2.00;0.73;;;15.80;99.90;;;;;;6178558;23;20052;-76
2022/09/21 11:08:32;;;;;;;5.03;0.70;;;15.90;99.90;;;;;;6182238;23;20430;-76
2022/09/21 11:11:27;;;;;;;3.25;0.77;;;15.90;99.90;;;;;;6179974;23;20005;-76
2022/09/21 11:14:04;;;;;;;6.10;0.75;;;16.00;99.90;;;;;;6180395;23;20016;-76
2022/09/21 11:17:18;;;;;;;2.38;0.73;;;16.00;99.90;;;;;;6181292;23;20009;-76
2022/09/21 11:20:11;;;;;;;1.50;0.57;;;16.20;99.90;;;;;;6061756;23;20066;-76
2022/09/21 11:23:03;;;;;;;4.72;0.40;;;16.30;99.50;;;;;;6060131;23;20007;-75
2022/09/21 11:25:42;;;;;;;2.00;0.40;;;16.40;99.00;;;;;;6060924;23;20030;-75
2022/09/21 11:28:16;;;;;;;3.60;0.38;;;16.60;99.50;;;;;;6060797;23;20046;-75
2022/09/21 11:30:59;;;;;;;1.60;0.50;;;16.60;98.20;;;;;;6061867;23;20341;-75
2022/09/21 11:33:32;;;;;;;2.05;0.60;;;17.50;98.00;;;;;;6060543;23;20010;-75
2022/09/21 11:36:11;;;;;;;0.55;0.40;;;16.90;97.80;;;;;;6059853;23;20109;-75
2022/09/21 11:39:01;;;;;;;1.70;0.38;;;17.00;96.80;;;;;;6061757;23;20348;-75
2022/09/21 11:41:38;;;;;;;4.53;0.63;;;17.10;96.60;;;;;;6061791;23;20007;-76
2022/09/21 11:44:32;;;;;;;2.92;0.30;;;17.10;97.10;;;;;;6060317;23;20018;-75
2022/09/21 11:47:09;;;;;;;2.50;0.40;;;17.20;95.60;;;;;;6060279;23;19999;-75
2022/09/21 11:50:02;;;;;;;4.07;0.43;;;17.30;95.50;;;;;;6061914;23;20003;-76
2022/09/21 11:52:31;;;;;;;1.90;0.40;;;17.30;95.90;;;;;;6062232;23;20500;-77
2022/09/21 11:55:15;;;;;;;2.38;0.47;;;17.10;95.60;;;;;;6060391;23;20039;-76
2022/09/21 11:58:17;;;;;;;1.42;0.30;;;17.30;96.00;;;;;;6178934;23;19998;-76
2022/09/21 12:01:25;;;;;;;0.85;0.55;;;17.20;94.90;;;;;;6181588;23;20100;-76
2022/09/21 12:04:20;;;;;;;0.57;0.20;;;17.20;94.40;;;;;;6165496;23;20017;-76
2022/09/21 12:06:55;;;;;;;2.00;0.65;;;17.20;94.00;;;;;;6179108;23;20008;-76
2022/09/21 12:09:42;;;;;;;2.90;0.60;;;17.30;92.90;;;;;;6180035;23;20017;-76
2022/09/21 12:12:14;;;;;;;3.13;0.30;;;17.30;92.90;;;;;;6181108;23;20008;-76
2022/09/21 12:14:58;;;;;;;2.92;0.30;;;17.40;93.70;;;;;;6181305;23;20072;-77
2022/09/21 12:17:33;;;;;;;;;;;17.30;92.50;;;;;;6177345;23;20009;-77
2022/09/21 12:20:22;;;;;;;4.28;0.40;;;17.30;93.40;;;;;;6181237;23;19906;-76
2022/09/21 12:22:55;;;;;;;1.75;0.47;;;17.40;93.20;;;;;;6180375;23;20016;-76
2022/09/21 12:25:23;;;;;;;1.90;0.40;;;18.30;94.00;;;;;;6181193;23;19997;-76
2022/09/21 12:28:13;;;;;;;2.60;0.75;;;17.40;93.20;;;;;;6177559;23;20024;-77
2022/09/21 12:30:43;;;;;;;2.92;0.50;;;17.20;92.80;;;;;;6178607;23;20382;-77
2022/09/21 12:33:24;;;;;;;1.85;0.63;;;17.60;93.30;;;;;;6180924;23;20059;-76
2022/09/21 12:36:13;;;;;;;1.63;0.40;;;17.20;93.30;;;;;;6178903;23;20358;-76
2022/09/21 12:38:49;;;;;;;3.60;0.40;;;17.10;92.40;;;;;;6180795;23;20047;-74
2022/09/21 12:41:31;;;;;;;1.45;0.40;;;17.00;93.20;;;;;;6180803;23;20036;-76
2022/09/21 12:44:15;;;;;;;1.73;0.40;;;16.90;92.20;;;;;;6180861;23;20009;-75
2022/09/21 12:46:48;;;;;;;2.83;0.40;;;16.80;91.80;;;;;;6180008;23;20080;-76
2022/09/21 12:49:18;;;;;;;3.33;0.40;;;16.70;92.80;;;;;;6180347;23;20005;-75
2022/09/21 12:51:54;;;;;;;3.05;0.30;;;16.90;92.70;;;;;;6182206;23;20001;-73
2022/09/21 12:54:19;;;;;;;3.22;0.50;;;16.50;91.90;;;;;;6181744;23;20381;-75
2022/09/21 12:57:00;;;;;;;1.42;0.38;;;16.40;92.60;;;;;;6182165;23;20032;-75
2022/09/21 12:59:38;;;;;;;2.25;0.30;;;16.40;93.20;;;;;;6182685;23;20500;-75
2022/09/21 13:02:04;;;;;;;3.47;0.40;;;16.30;93.30;;;;;;6181157;23;20001;-75
2022/09/21 13:04:42;;;;;;;2.15;0.50;;;16.20;92.80;;;;;;6182418;23;20024;-75
2022/09/21 13:07:31;;;;;;;3.65;0.70;;;16.30;93.30;;;;;;6181680;23;20020;-75
2022/09/21 13:09:59;;;;;;;3.22;0.47;;;17.10;93.60;;;;;;6182020;23;20001;-75
2022/09/21 13:12:36;;;;;;;0.85;0.30;;;16.00;92.70;;;;;;6182512;23;20029;-75
2022/09/21 13:15:23;;;;;;;2.42;0.40;;;16.40;93.00;;;;;;6182989;23;20001;-75
2022/09/21 13:18:00;;;;;;;3.35;0.47;;;16.10;93.20;;;;;;6183068;23;20005;-75
2022/09/21 13:20:33;;;;;;;4.53;1.30;;;16.10;92.20;;;;;;6183274;23;19997;-75
2022/09/21 13:23:01;;;;;;;2.90;0.32;;;16.00;92.90;;;;;;6181051;23;20360;-75
2022/09/21 13:25:29;;;;;;;0.95;0.32;;;16.10;92.90;;;;;;6180349;23;20091;-75